Scotchtown, New York
Current Conditions -  °F | °C
As of 7:01 PM on Wednesday 22 Oct 2014 (Local Time) from KMGJ Reporting Station
Light Rain Light Rain  
Wind Chill: 52°   Ceiling: 3000
Heat Index: 52°   Visibility: 9mi
Dew Point: 47°   Wind: 16mph
Humidity: 83%   Direction: 30°NNE
Pressure: 29.87"   Gusts: 23mph
Location:  41.45°N, 74.41°W
Report Text: KMGJ 222301Z AUTO 03014G20KT 9SM -RA FEW024 BKN030 OVC037 11/08 A2987 RMK AO2 P0000 T01110083 TSNO
Loading
Personal Weather Stations






























Interactive Weather Map
Tropical Storm Tracking
New forecast layout! Learn more

10-Day Weather Forecast

Advertisements
Track Severe Weather on mobile